Relevés horaires Bierset (Belgique)


Relevés horaires à Bierset - Vendredi 19 Avr. 2019
Heure UTC1 Température [°C] Vent [km/h] Hum. [%] Pres.4 [hPa] Visi. [Km] Nébu. [octa] Préc.5 [mm] Cond.
2m. Res. Ros. Dir.2 Vit. Moy. Raf.3
23:00 15.2 15.2 1.8 E 3.7 3.7 7.4 40 1028.3(0.6/3h) 30 0/8 -- --
22:00 16.8 16.8 1.9 SE 3.7 3.7 5.6 37 1028(1.0/3h) 30 1/8 -- --
21:00 18.1 18.1 1.4 ESE 3.7 7.4 11.1 33 1027.7(1.2/3h) 30 1/8 -- --
20:00 17.9 17.9 2.1 ENE 3.7 5.6 11.1 35 1027.4(1.2/3h) 30 1/8 -- --
19:00 18.5 18.5 2.8 ENE 5.6 7.4 11.1 35 1026.9(0.9/3h) 30 1/8 -- --
18:00 19.0 19.0 3.4 NE 7.4 13.0 18.5 35 1026.3(0.5/3h) 30 1/8 0/12h
--
17:00 22.1 22.1 2.5 NE 11.1 13.0 18.5 27 1025.9(-0.1/3h) 30 1/8 -- --
16:00 21.5 21.5 3.1 NE 13.0 13.0 18.5 30 1025.7(-0.3/3h) 30 1/8 -- --
15:00 22.7 22.7 4.3 NE 11.1 11.1 18.5 30 1025.6(-0.4/3h) 30 1/8 -- --
14:00 23.1 23.1 5.3 ENE 7.4 9.3 18.5 32 1025.7(-0.3/3h) 30 1/8 -- --
13:00 23.2 23.2 2.8 ESE 7.4 9.3 18.5 26 1026(-0.4/3h) 30 1/8 -- --
12:00 22.9 22.9 1.9 SE 9.3 9.3 16.7 25 1026(-0.6/3h) 30 1/8 0/6h
--
11:00 22.3 22.3 3.6 E 5.6 7.4 13.0 29 1026(-0.3/3h) 30 1/8 -- --
10:00 20.2 20.2 6.2 NE 7.4 9.3 13.0 40 1026.6(0.3/3h) 30 1/8 -- --
09:00 17.5 17.5 7.2 N 7.4 7.4 16.7 51 1027(0.7/3h) 30 1/8 -- --
08:00 16.8 16.8 4.8 ENE 3.7 5.6 13.0 45 1026.8(1.0/3h) 30 1/8 -- --
07:00 14.7 14.7 3.9 NNO 3.7 5.6 16.7 48 1026.7(1.1/3h) 30 1/8 -- --
06:00 11.9 11.9 4.0 ESE 3.7 7.4 22.2 58 1026.7(1.0/3h) 30 1/8 0/12h
--
05:00 11.3 11.1 2.4 E 5.6 5.6 18.5 54 1026.2(0.7/3h) 30 1/8 -- --
04:00 11.6 11.4 2.7 E 5.6 7.4 22.2 54 1025.8(0.4/3h) 30 1/8 -- --
03:00 11.6 11.4 2.6 ENE 5.6 7.4 18.5 54 1025.7(0.3/3h) 30 1/8 -- --
02:00 13.0 13 2.7 E 5.6 7.4 9.3 50 1025.4(0.3/3h) 30 1/8 -- --
01:00 12.8 12.4 3.5 ENE 7.4 7.4 11.1 53 1025.3(0.4/3h) 30 1/8 -- --
00:00 13.3 13.3 3.7 ENE 5.6 9.3 20.4 52 1025.2(0.7/3h) 30 1/8 0/6h
0/24h
--

1 Coordinated Universal Time. Actuellement il est 00:00 locale et 23:00 UTC.

2 Le vent souffle depuis la direction indiquée vers la direction oposée.

3 Les rafales max. sont disponible 40 min après l'heure du relevé.

4 Pour les stations d'altitude (plus de 600m) le géopotentiel du niveau le plus proche de la pression obligatoire est indiqué.

5 Les stations disposant d'un diffuseur peuvent indiquer "trace". Cela signifie que des précipitations ont touchés le sol mais que la quantité est inférieure à 0.1 mm.

Récapitulatif de la journée
Température [°C] Vent [km/h] Ensoleillement4 [h] Precipitations totale5 [mm] Pression [Hpa]
Min1 Max.2 Moy.3 Max. Min Max.
10.4 23.8 8 22.2 0 h 0 min 0 1025.2 1028.3

1 Température minimale relevée entre 18:00 UTC la veille et 18:00 UTC le jour donné.

2 Température maximale relevée entre 06:00 UTC le jour donné et 06:00 UTC le lendemain.

3 Vent moyen de la journée basé sur les relevés horaires.

4 Ensoleillement en heures relevé entre 06:00 UTC la veille et 06:00 UTC le jour donné.

5 Précipitations totales tombées entre 06:00 UTC la jour donné et 06:00 UTC le lendemain.

Graphiques horaires